sensor_id;sensor_type;location;lat;lon;timestamp;P1;durP1;ratioP1;P2;durP2;ratioP2
69754;SDS011;57023;52.218;5.158;2023-08-20T00:02:02;11.10;;;3.88;;
69754;SDS011;57023;52.218;5.158;2023-08-20T00:04:28;9.57;;;3.80;;
69754;SDS011;57023;52.218;5.158;2023-08-20T00:06:56;11.05;;;3.55;;
69754;SDS011;57023;52.218;5.158;2023-08-20T00:09:21;7.53;;;3.28;;
69754;SDS011;57023;52.218;5.158;2023-08-20T00:11:48;9.23;;;3.58;;
69754;SDS011;57023;52.218;5.158;2023-08-20T00:14:15;9.07;;;4.03;;
69754;SDS011;57023;52.218;5.158;2023-08-20T00:16:42;8.30;;;3.60;;
69754;SDS011;57023;52.218;5.158;2023-08-20T00:19:08;9.55;;;3.75;;
69754;SDS011;57023;52.218;5.158;2023-08-20T00:21:34;8.20;;;3.45;;
69754;SDS011;57023;52.218;5.158;2023-08-20T00:24:04;9.98;;;3.78;;
69754;SDS011;57023;52.218;5.158;2023-08-20T00:26:29;9.88;;;3.63;;
69754;SDS011;57023;52.218;5.158;2023-08-20T00:28:58;10.50;;;3.47;;
69754;SDS011;57023;52.218;5.158;2023-08-20T00:31:23;8.15;;;3.33;;
69754;SDS011;57023;52.218;5.158;2023-08-20T00:33:52;9.30;;;3.42;;
69754;SDS011;57023;52.218;5.158;2023-08-20T00:36:17;9.02;;;3.67;;
69754;SDS011;57023;52.218;5.158;2023-08-20T00:38:42;7.28;;;3.67;;
69754;SDS011;57023;52.218;5.158;2023-08-20T00:41:07;10.93;;;3.72;;
69754;SDS011;57023;52.218;5.158;2023-08-20T00:43:33;10.55;;;3.42;;
69754;SDS011;57023;52.218;5.158;2023-08-20T00:45:59;9.85;;;3.72;;
69754;SDS011;57023;52.218;5.158;2023-08-20T00:48:24;9.25;;;3.72;;
69754;SDS011;57023;52.218;5.158;2023-08-20T00:50:50;7.22;;;3.40;;
69754;SDS011;57023;52.218;5.158;2023-08-20T00:53:15;10.05;;;3.92;;
69754;SDS011;57023;52.218;5.158;2023-08-20T00:55:42;8.20;;;3.40;;
69754;SDS011;57023;52.218;5.158;2023-08-20T00:58:08;11.77;;;3.55;;
69754;SDS011;57023;52.218;5.158;2023-08-20T01:00:34;10.35;;;3.42;;
69754;SDS011;57023;52.218;5.158;2023-08-20T01:02:59;10.88;;;3.85;;
69754;SDS011;57023;52.218;5.158;2023-08-20T01:05:24;11.88;;;3.88;;
69754;SDS011;57023;52.218;5.158;2023-08-20T01:13:24;9.65;;;3.42;;
69754;SDS011;57023;52.218;5.158;2023-08-20T01:15:52;10.98;;;3.63;;
69754;SDS011;57023;52.218;5.158;2023-08-20T01:18:18;8.30;;;3.47;;
69754;SDS011;57023;52.218;5.158;2023-08-20T01:20:45;8.95;;;3.53;;
69754;SDS011;57023;52.218;5.158;2023-08-20T01:24:01;10.60;;;3.45;;
69754;SDS011;57023;52.218;5.158;2023-08-20T01:26:38;8.95;;;3.45;;
69754;SDS011;57023;52.218;5.158;2023-08-20T01:29:05;10.43;;;3.90;;
69754;SDS011;57023;52.218;5.158;2023-08-20T01:31:31;7.68;;;3.35;;
69754;SDS011;57023;52.218;5.158;2023-08-20T01:33:57;10.57;;;3.57;;
69754;SDS011;57023;52.218;5.158;2023-08-20T01:36:23;7.32;;;3.47;;
69754;SDS011;57023;52.218;5.158;2023-08-20T01:38:48;9.15;;;3.35;;
69754;SDS011;57023;52.218;5.158;2023-08-20T01:41:13;7.45;;;3.65;;
69754;SDS011;57023;52.218;5.158;2023-08-20T01:43:39;10.77;;;3.75;;
69754;SDS011;57023;52.218;5.158;2023-08-20T01:46:04;10.63;;;3.75;;
69754;SDS011;57023;52.218;5.158;2023-08-20T01:48:30;9.77;;;3.78;;
69754;SDS011;57023;52.218;5.158;2023-08-20T01:50:55;11.43;;;3.47;;
69754;SDS011;57023;52.218;5.158;2023-08-20T01:53:20;8.73;;;3.60;;
69754;SDS011;57023;52.218;5.158;2023-08-20T01:55:46;9.10;;;3.50;;
69754;SDS011;57023;52.218;5.158;2023-08-20T01:58:11;8.30;;;3.17;;
69754;SDS011;57023;52.218;5.158;2023-08-20T02:00:36;9.98;;;3.88;;
69754;SDS011;57023;52.218;5.158;2023-08-20T02:03:02;10.35;;;3.58;;
69754;SDS011;57023;52.218;5.158;2023-08-20T02:05:28;8.20;;;3.65;;
69754;SDS011;57023;52.218;5.158;2023-08-20T02:07:54;11.07;;;3.97;;
69754;SDS011;57023;52.218;5.158;2023-08-20T02:10:19;9.43;;;3.72;;
69754;SDS011;57023;52.218;5.158;2023-08-20T02:12:46;9.20;;;3.70;;
69754;SDS011;57023;52.218;5.158;2023-08-20T02:15:11;10.55;;;3.67;;
69754;SDS011;57023;52.218;5.158;2023-08-20T02:17:36;9.07;;;3.80;;
69754;SDS011;57023;52.218;5.158;2023-08-20T02:20:02;8.23;;;3.90;;
69754;SDS011;57023;52.218;5.158;2023-08-20T02:22:31;8.95;;;3.85;;
69754;SDS011;57023;52.218;5.158;2023-08-20T02:24:59;8.20;;;3.83;;
69754;SDS011;57023;52.218;5.158;2023-08-20T02:27:24;10.80;;;3.83;;
69754;SDS011;57023;52.218;5.158;2023-08-20T02:29:49;9.27;;;3.90;;
69754;SDS011;57023;52.218;5.158;2023-08-20T02:32:15;8.68;;;3.50;;
69754;SDS011;57023;52.218;5.158;2023-08-20T02:34:40;10.25;;;3.78;;
69754;SDS011;57023;52.218;5.158;2023-08-20T02:37:08;6.80;;;3.45;;
69754;SDS011;57023;52.218;5.158;2023-08-20T02:39:33;7.78;;;3.70;;
69754;SDS011;57023;52.218;5.158;2023-08-20T02:41:58;9.60;;;3.80;;
69754;SDS011;57023;52.218;5.158;2023-08-20T02:44:24;9.38;;;3.75;;
69754;SDS011;57023;52.218;5.158;2023-08-20T02:46:49;10.32;;;3.80;;
69754;SDS011;57023;52.218;5.158;2023-08-20T02:49:17;8.13;;;3.50;;
69754;SDS011;57023;52.218;5.158;2023-08-20T02:51:43;9.65;;;3.90;;
69754;SDS011;57023;52.218;5.158;2023-08-20T02:54:08;9.23;;;3.80;;
69754;SDS011;57023;52.218;5.158;2023-08-20T02:56:33;11.50;;;3.80;;
69754;SDS011;57023;52.218;5.158;2023-08-20T02:58:59;11.30;;;3.90;;
69754;SDS011;57023;52.218;5.158;2023-08-20T03:01:25;10.43;;;3.70;;
69754;SDS011;57023;52.218;5.158;2023-08-20T03:03:51;9.23;;;4.10;;
69754;SDS011;57023;52.218;5.158;2023-08-20T03:06:16;8.77;;;3.53;;
69754;SDS011;57023;52.218;5.158;2023-08-20T03:08:41;11.93;;;3.90;;
69754;SDS011;57023;52.218;5.158;2023-08-20T03:11:10;10.43;;;4.10;;
69754;SDS011;57023;52.218;5.158;2023-08-20T03:13:35;10.27;;;4.10;;
69754;SDS011;57023;52.218;5.158;2023-08-20T03:16:01;10.23;;;4.13;;
69754;SDS011;57023;52.218;5.158;2023-08-20T03:18:27;10.23;;;4.00;;
69754;SDS011;57023;52.218;5.158;2023-08-20T03:20:54;11.63;;;4.18;;
69754;SDS011;57023;52.218;5.158;2023-08-20T03:23:20;11.65;;;4.18;;
69754;SDS011;57023;52.218;5.158;2023-08-20T03:25:46;13.13;;;4.10;;
69754;SDS011;57023;52.218;5.158;2023-08-20T03:28:11;10.18;;;4.13;;
69754;SDS011;57023;52.218;5.158;2023-08-20T03:30:36;10.85;;;4.15;;
69754;SDS011;57023;52.218;5.158;2023-08-20T03:33:02;8.00;;;3.75;;
69754;SDS011;57023;52.218;5.158;2023-08-20T03:35:27;9.30;;;3.80;;
69754;SDS011;57023;52.218;5.158;2023-08-20T03:37:53;10.05;;;3.90;;
69754;SDS011;57023;52.218;5.158;2023-08-20T03:40:18;9.88;;;4.22;;
69754;SDS011;57023;52.218;5.158;2023-08-20T03:42:43;8.23;;;3.78;;
69754;SDS011;57023;52.218;5.158;2023-08-20T03:45:09;12.98;;;4.43;;
69754;SDS011;57023;52.218;5.158;2023-08-20T03:47:34;8.70;;;4.18;;
69754;SDS011;57023;52.218;5.158;2023-08-20T03:52:26;9.17;;;3.70;;
69754;SDS011;57023;52.218;5.158;2023-08-20T03:54:52;10.02;;;3.97;;
69754;SDS011;57023;52.218;5.158;2023-08-20T03:57:17;10.95;;;3.85;;
69754;SDS011;57023;52.218;5.158;2023-08-20T03:59:42;8.00;;;3.78;;
69754;SDS011;57023;52.218;5.158;2023-08-20T04:02:11;10.77;;;4.25;;
69754;SDS011;57023;52.218;5.158;2023-08-20T04:04:36;8.82;;;3.80;;
69754;SDS011;57023;52.218;5.158;2023-08-20T04:07:02;10.23;;;4.00;;
69754;SDS011;57023;52.218;5.158;2023-08-20T04:09:27;13.98;;;4.50;;
69754;SDS011;57023;52.218;5.158;2023-08-20T04:11:53;9.27;;;3.83;;
69754;SDS011;57023;52.218;5.158;2023-08-20T04:14:18;10.63;;;4.72;;
69754;SDS011;57023;52.218;5.158;2023-08-20T04:16:43;9.85;;;4.45;;
69754;SDS011;57023;52.218;5.158;2023-08-20T04:19:09;11.00;;;4.38;;
69754;SDS011;57023;52.218;5.158;2023-08-20T04:21:34;16.80;;;4.72;;
69754;SDS011;57023;52.218;5.158;2023-08-20T04:24:00;9.75;;;4.22;;
69754;SDS011;57023;52.218;5.158;2023-08-20T04:26:25;11.93;;;4.50;;
69754;SDS011;57023;52.218;5.158;2023-08-20T04:28:50;10.52;;;4.45;;
69754;SDS011;57023;52.218;5.158;2023-08-20T04:31:15;10.63;;;4.55;;
69754;SDS011;57023;52.218;5.158;2023-08-20T04:33:41;12.60;;;4.65;;
69754;SDS011;57023;52.218;5.158;2023-08-20T04:36:06;9.38;;;4.70;;
69754;SDS011;57023;52.218;5.158;2023-08-20T04:38:31;9.80;;;4.90;;
69754;SDS011;57023;52.218;5.158;2023-08-20T04:40:57;10.38;;;4.72;;
69754;SDS011;57023;52.218;5.158;2023-08-20T04:43:22;8.25;;;4.30;;
69754;SDS011;57023;52.218;5.158;2023-08-20T04:45:47;9.55;;;4.43;;
69754;SDS011;57023;52.218;5.158;2023-08-20T04:48:14;9.93;;;4.72;;
69754;SDS011;57023;52.218;5.158;2023-08-20T04:50:42;11.65;;;4.50;;
69754;SDS011;57023;52.218;5.158;2023-08-20T04:53:10;10.00;;;4.85;;
69754;SDS011;57023;52.218;5.158;2023-08-20T04:55:35;11.55;;;4.85;;
69754;SDS011;57023;52.218;5.158;2023-08-20T04:58:01;11.27;;;4.95;;
69754;SDS011;57023;52.218;5.158;2023-08-20T05:00:29;11.30;;;4.47;;
69754;SDS011;57023;52.218;5.158;2023-08-20T05:02:55;12.52;;;5.13;;
69754;SDS011;57023;52.218;5.158;2023-08-20T05:05:21;10.65;;;4.70;;
69754;SDS011;57023;52.218;5.158;2023-08-20T05:07:46;11.90;;;4.55;;
69754;SDS011;57023;52.218;5.158;2023-08-20T05:10:11;12.63;;;4.97;;
69754;SDS011;57023;52.218;5.158;2023-08-20T05:12:37;11.05;;;4.60;;
69754;SDS011;57023;52.218;5.158;2023-08-20T05:15:02;11.32;;;4.68;;
69754;SDS011;57023;52.218;5.158;2023-08-20T05:17:31;12.10;;;4.90;;
69754;SDS011;57023;52.218;5.158;2023-08-20T05:19:56;10.65;;;4.88;;
69754;SDS011;57023;52.218;5.158;2023-08-20T05:22:21;10.43;;;4.72;;
69754;SDS011;57023;52.218;5.158;2023-08-20T05:24:47;11.15;;;4.82;;
69754;SDS011;57023;52.218;5.158;2023-08-20T05:27:13;9.35;;;4.75;;
69754;SDS011;57023;52.218;5.158;2023-08-20T05:29:39;13.20;;;4.47;;
69754;SDS011;57023;52.218;5.158;2023-08-20T05:32:05;10.32;;;4.78;;
69754;SDS011;57023;52.218;5.158;2023-08-20T05:34:31;8.93;;;4.45;;
69754;SDS011;57023;52.218;5.158;2023-08-20T05:36:59;11.55;;;4.70;;
69754;SDS011;57023;52.218;5.158;2023-08-20T05:39:25;8.18;;;4.55;;
69754;SDS011;57023;52.218;5.158;2023-08-20T05:41:51;13.95;;;4.80;;
69754;SDS011;57023;52.218;5.158;2023-08-20T05:44:19;13.90;;;5.05;;
69754;SDS011;57023;52.218;5.158;2023-08-20T05:46:45;16.50;;;4.80;;
69754;SDS011;57023;52.218;5.158;2023-08-20T05:49:14;10.07;;;4.70;;
69754;SDS011;57023;52.218;5.158;2023-08-20T05:51:41;12.63;;;4.75;;
69754;SDS011;57023;52.218;5.158;2023-08-20T05:54:06;11.32;;;4.82;;
69754;SDS011;57023;52.218;5.158;2023-08-20T05:56:32;9.10;;;4.20;;
69754;SDS011;57023;52.218;5.158;2023-08-20T05:58:57;13.98;;;4.38;;
69754;SDS011;57023;52.218;5.158;2023-08-20T06:01:22;9.30;;;4.60;;
69754;SDS011;57023;52.218;5.158;2023-08-20T06:03:48;9.50;;;4.30;;
69754;SDS011;57023;52.218;5.158;2023-08-20T06:06:13;10.13;;;4.75;;
69754;SDS011;57023;52.218;5.158;2023-08-20T06:08:39;14.43;;;4.68;;
69754;SDS011;57023;52.218;5.158;2023-08-20T06:11:04;9.80;;;4.35;;
69754;SDS011;57023;52.218;5.158;2023-08-20T06:13:29;11.57;;;4.82;;
69754;SDS011;57023;52.218;5.158;2023-08-20T06:15:55;14.57;;;5.00;;
69754;SDS011;57023;52.218;5.158;2023-08-20T06:18:20;12.40;;;4.53;;
69754;SDS011;57023;52.218;5.158;2023-08-20T06:20:45;10.07;;;4.60;;
69754;SDS011;57023;52.218;5.158;2023-08-20T06:23:10;10.75;;;4.68;;
69754;SDS011;57023;52.218;5.158;2023-08-20T06:25:37;14.47;;;5.30;;
69754;SDS011;57023;52.218;5.158;2023-08-20T06:28:02;12.98;;;4.47;;
69754;SDS011;57023;52.218;5.158;2023-08-20T06:30:30;10.80;;;4.85;;
69754;SDS011;57023;52.218;5.158;2023-08-20T06:32:55;9.95;;;4.63;;
69754;SDS011;57023;52.218;5.158;2023-08-20T06:35:21;13.50;;;4.18;;
69754;SDS011;57023;52.218;5.158;2023-08-20T06:37:46;11.30;;;4.93;;
69754;SDS011;57023;52.218;5.158;2023-08-20T06:40:11;8.02;;;4.10;;
69754;SDS011;57023;52.218;5.158;2023-08-20T06:42:38;11.80;;;4.53;;
69754;SDS011;57023;52.218;5.158;2023-08-20T06:45:04;12.85;;;4.70;;
69754;SDS011;57023;52.218;5.158;2023-08-20T06:47:29;11.80;;;4.45;;
69754;SDS011;57023;52.218;5.158;2023-08-20T06:49:58;14.77;;;4.38;;
69754;SDS011;57023;52.218;5.158;2023-08-20T06:52:23;12.85;;;4.20;;
69754;SDS011;57023;52.218;5.158;2023-08-20T06:54:48;9.45;;;3.80;;
69754;SDS011;57023;52.218;5.158;2023-08-20T06:57:14;12.07;;;3.88;;
69754;SDS011;57023;52.218;5.158;2023-08-20T06:59:39;16.15;;;4.45;;
69754;SDS011;57023;52.218;5.158;2023-08-20T07:02:04;14.07;;;4.35;;
69754;SDS011;57023;52.218;5.158;2023-08-20T07:04:30;10.68;;;3.53;;
69754;SDS011;57023;52.218;5.158;2023-08-20T07:06:55;11.10;;;3.67;;
69754;SDS011;57023;52.218;5.158;2023-08-20T07:09:20;9.93;;;3.55;;
69754;SDS011;57023;52.218;5.158;2023-08-20T07:11:46;11.15;;;3.53;;
69754;SDS011;57023;52.218;5.158;2023-08-20T07:14:11;14.20;;;3.78;;
69754;SDS011;57023;52.218;5.158;2023-08-20T07:16:36;10.65;;;3.40;;
69754;SDS011;57023;52.218;5.158;2023-08-20T07:19:02;8.93;;;3.55;;
69754;SDS011;57023;52.218;5.158;2023-08-20T07:21:27;9.65;;;3.50;;
69754;SDS011;57023;52.218;5.158;2023-08-20T07:23:52;11.73;;;3.63;;
69754;SDS011;57023;52.218;5.158;2023-08-20T07:26:18;10.65;;;3.83;;
69754;SDS011;57023;52.218;5.158;2023-08-20T07:28:43;7.15;;;3.50;;
69754;SDS011;57023;52.218;5.158;2023-08-20T07:31:28;13.40;;;3.65;;
69754;SDS011;57023;52.218;5.158;2023-08-20T07:34:01;9.55;;;3.53;;
69754;SDS011;57023;52.218;5.158;2023-08-20T07:36:28;14.02;;;4.05;;
69754;SDS011;57023;52.218;5.158;2023-08-20T07:38:53;10.52;;;3.45;;
69754;SDS011;57023;52.218;5.158;2023-08-20T07:41:19;10.50;;;3.42;;
69754;SDS011;57023;52.218;5.158;2023-08-20T07:43:45;10.98;;;2.88;;
69754;SDS011;57023;52.218;5.158;2023-08-20T07:46:10;10.02;;;3.35;;
69754;SDS011;57023;52.218;5.158;2023-08-20T07:48:36;11.85;;;3.40;;
69754;SDS011;57023;52.218;5.158;2023-08-20T07:51:01;12.32;;;3.60;;
69754;SDS011;57023;52.218;5.158;2023-08-20T07:53:27;13.90;;;3.50;;
69754;SDS011;57023;52.218;5.158;2023-08-20T07:55:53;7.85;;;3.35;;
69754;SDS011;57023;52.218;5.158;2023-08-20T07:58:18;10.95;;;3.50;;
69754;SDS011;57023;52.218;5.158;2023-08-20T08:00:44;10.60;;;3.15;;
69754;SDS011;57023;52.218;5.158;2023-08-20T08:03:09;9.55;;;3.60;;
69754;SDS011;57023;52.218;5.158;2023-08-20T08:05:35;10.50;;;3.28;;
69754;SDS011;57023;52.218;5.158;2023-08-20T08:08:00;8.70;;;3.47;;
69754;SDS011;57023;52.218;5.158;2023-08-20T08:10:26;9.97;;;3.33;;
69754;SDS011;57023;52.218;5.158;2023-08-20T08:12:54;9.73;;;3.28;;
69754;SDS011;57023;52.218;5.158;2023-08-20T08:15:19;10.30;;;3.57;;
69754;SDS011;57023;52.218;5.158;2023-08-20T08:17:45;11.75;;;3.70;;
69754;SDS011;57023;52.218;5.158;2023-08-20T08:20:10;9.73;;;3.80;;
69754;SDS011;57023;52.218;5.158;2023-08-20T08:22:36;10.38;;;4.47;;
69754;SDS011;57023;52.218;5.158;2023-08-20T08:25:02;10.77;;;3.80;;
69754;SDS011;57023;52.218;5.158;2023-08-20T08:27:27;9.73;;;3.80;;
69754;SDS011;57023;52.218;5.158;2023-08-20T08:29:53;11.02;;;3.65;;
69754;SDS011;57023;52.218;5.158;2023-08-20T08:32:18;8.37;;;3.47;;
69754;SDS011;57023;52.218;5.158;2023-08-20T08:34:43;11.27;;;3.80;;
69754;SDS011;57023;52.218;5.158;2023-08-20T08:37:09;14.10;;;3.40;;
69754;SDS011;57023;52.218;5.158;2023-08-20T08:39:34;9.23;;;3.30;;
69754;SDS011;57023;52.218;5.158;2023-08-20T08:42:03;8.53;;;3.50;;
69754;SDS011;57023;52.218;5.158;2023-08-20T08:44:32;9.98;;;3.60;;
69754;SDS011;57023;52.218;5.158;2023-08-20T08:46:58;10.32;;;3.25;;
69754;SDS011;57023;52.218;5.158;2023-08-20T08:49:26;7.80;;;3.53;;
69754;SDS011;57023;52.218;5.158;2023-08-20T08:51:54;11.80;;;3.25;;
69754;SDS011;57023;52.218;5.158;2023-08-20T08:54:21;9.68;;;3.28;;
69754;SDS011;57023;52.218;5.158;2023-08-20T08:56:47;8.37;;;3.23;;
69754;SDS011;57023;52.218;5.158;2023-08-20T08:59:12;11.00;;;3.60;;
69754;SDS011;57023;52.218;5.158;2023-08-20T09:01:38;8.87;;;2.93;;
69754;SDS011;57023;52.218;5.158;2023-08-20T09:04:04;8.68;;;2.97;;
69754;SDS011;57023;52.218;5.158;2023-08-20T09:06:43;9.13;;;3.33;;
69754;SDS011;57023;52.218;5.158;2023-08-20T09:09:12;11.18;;;3.63;;
69754;SDS011;57023;52.218;5.158;2023-08-20T09:11:38;8.57;;;3.17;;
69754;SDS011;57023;52.218;5.158;2023-08-20T09:14:03;7.63;;;3.33;;
69754;SDS011;57023;52.218;5.158;2023-08-20T09:16:31;10.83;;;3.03;;
69754;SDS011;57023;52.218;5.158;2023-08-20T09:19:00;8.90;;;3.05;;
69754;SDS011;57023;52.218;5.158;2023-08-20T09:21:26;9.27;;;3.00;;
69754;SDS011;57023;52.218;5.158;2023-08-20T09:23:58;8.75;;;2.78;;
69754;SDS011;57023;52.218;5.158;2023-08-20T09:26:27;6.40;;;2.80;;
69754;SDS011;57023;52.218;5.158;2023-08-20T09:28:54;10.13;;;2.87;;
69754;SDS011;57023;52.218;5.158;2023-08-20T09:31:22;5.35;;;2.40;;
69754;SDS011;57023;52.218;5.158;2023-08-20T09:34:01;9.30;;;2.78;;
69754;SDS011;57023;52.218;5.158;2023-08-20T09:36:30;7.77;;;3.10;;
69754;SDS011;57023;52.218;5.158;2023-08-20T09:38:57;7.55;;;2.78;;
69754;SDS011;57023;52.218;5.158;2023-08-20T09:41:25;9.57;;;3.67;;
69754;SDS011;57023;52.218;5.158;2023-08-20T09:43:52;8.30;;;2.90;;
69754;SDS011;57023;52.218;5.158;2023-08-20T09:46:24;8.32;;;3.10;;
69754;SDS011;57023;52.218;5.158;2023-08-20T09:51:16;8.07;;;2.80;;
69754;SDS011;57023;52.218;5.158;2023-08-20T09:56:30;7.47;;;2.45;;
69754;SDS011;57023;52.218;5.158;2023-08-20T09:58:59;6.07;;;2.42;;
69754;SDS011;57023;52.218;5.158;2023-08-20T10:01:25;7.75;;;2.80;;
69754;SDS011;57023;52.218;5.158;2023-08-20T10:03:51;7.40;;;2.70;;
69754;SDS011;57023;52.218;5.158;2023-08-20T10:06:17;6.37;;;2.33;;
69754;SDS011;57023;52.218;5.158;2023-08-20T10:08:43;6.60;;;2.63;;
69754;SDS011;57023;52.218;5.158;2023-08-20T10:11:10;7.20;;;2.38;;
69754;SDS011;57023;52.218;5.158;2023-08-20T10:13:36;7.43;;;2.33;;
69754;SDS011;57023;52.218;5.158;2023-08-20T10:16:01;7.68;;;2.35;;
69754;SDS011;57023;52.218;5.158;2023-08-20T10:18:27;8.20;;;2.90;;
69754;SDS011;57023;52.218;5.158;2023-08-20T10:20:52;7.73;;;2.47;;
69754;SDS011;57023;52.218;5.158;2023-08-20T10:23:21;7.45;;;2.63;;
69754;SDS011;57023;52.218;5.158;2023-08-20T10:25:50;7.78;;;1.98;;
69754;SDS011;57023;52.218;5.158;2023-08-20T10:28:21;6.43;;;2.10;;
69754;SDS011;57023;52.218;5.158;2023-08-20T10:33:35;6.88;;;2.35;;
69754;SDS011;57023;52.218;5.158;2023-08-20T10:36:13;6.70;;;2.33;;
69754;SDS011;57023;52.218;5.158;2023-08-20T10:38:40;4.80;;;2.00;;
69754;SDS011;57023;52.218;5.158;2023-08-20T10:41:14;5.35;;;2.35;;
69754;SDS011;57023;52.218;5.158;2023-08-20T10:43:48;7.82;;;2.33;;
69754;SDS011;57023;52.218;5.158;2023-08-20T10:46:23;6.82;;;2.30;;
69754;SDS011;57023;52.218;5.158;2023-08-20T10:48:51;6.60;;;2.30;;
69754;SDS011;57023;52.218;5.158;2023-08-20T10:54:03;7.85;;;2.35;;
69754;SDS011;57023;52.218;5.158;2023-08-20T10:59:13;8.18;;;2.22;;
69754;SDS011;57023;52.218;5.158;2023-08-20T11:01:49;7.13;;;2.35;;
69754;SDS011;57023;52.218;5.158;2023-08-20T11:04:16;6.03;;;2.20;;
69754;SDS011;57023;52.218;5.158;2023-08-20T11:06:42;6.90;;;2.60;;
69754;SDS011;57023;52.218;5.158;2023-08-20T11:09:08;5.85;;;2.10;;
69754;SDS011;57023;52.218;5.158;2023-08-20T11:11:33;6.93;;;2.43;;
69754;SDS011;57023;52.218;5.158;2023-08-20T11:14:05;6.03;;;2.53;;
69754;SDS011;57023;52.218;5.158;2023-08-20T11:16:32;6.63;;;2.53;;
69754;SDS011;57023;52.218;5.158;2023-08-20T11:18:58;8.27;;;2.50;;
69754;SDS011;57023;52.218;5.158;2023-08-20T11:21:23;5.10;;;1.97;;
69754;SDS011;57023;52.218;5.158;2023-08-20T11:23:49;8.33;;;2.30;;
69754;SDS011;57023;52.218;5.158;2023-08-20T11:26:14;6.13;;;2.20;;
69754;SDS011;57023;52.218;5.158;2023-08-20T11:28:44;5.87;;;2.43;;
69754;SDS011;57023;52.218;5.158;2023-08-20T11:31:10;5.15;;;2.10;;
69754;SDS011;57023;52.218;5.158;2023-08-20T11:33:38;5.55;;;2.40;;
69754;SDS011;57023;52.218;5.158;2023-08-20T11:36:07;8.13;;;2.40;;
69754;SDS011;57023;52.218;5.158;2023-08-20T11:38:32;6.47;;;2.15;;
69754;SDS011;57023;52.218;5.158;2023-08-20T11:40:57;5.33;;;2.20;;
69754;SDS011;57023;52.218;5.158;2023-08-20T11:43:24;6.82;;;2.33;;
69754;SDS011;57023;52.218;5.158;2023-08-20T11:45:52;5.18;;;2.20;;
69754;SDS011;57023;52.218;5.158;2023-08-20T11:48:17;8.07;;;2.50;;
69754;SDS011;57023;52.218;5.158;2023-08-20T11:50:42;6.15;;;2.53;;
69754;SDS011;57023;52.218;5.158;2023-08-20T11:53:08;6.32;;;2.42;;
69754;SDS011;57023;52.218;5.158;2023-08-20T11:55:35;6.13;;;2.38;;
69754;SDS011;57023;52.218;5.158;2023-08-20T11:58:01;7.93;;;2.38;;
69754;SDS011;57023;52.218;5.158;2023-08-20T12:00:27;5.75;;;2.17;;
69754;SDS011;57023;52.218;5.158;2023-08-20T12:02:54;6.97;;;2.60;;
69754;SDS011;57023;52.218;5.158;2023-08-20T12:05:21;5.28;;;2.13;;
69754;SDS011;57023;52.218;5.158;2023-08-20T12:07:58;7.67;;;2.10;;
69754;SDS011;57023;52.218;5.158;2023-08-20T12:10:26;5.75;;;2.35;;
69754;SDS011;57023;52.218;5.158;2023-08-20T12:12:52;6.47;;;2.55;;
69754;SDS011;57023;52.218;5.158;2023-08-20T12:15:19;5.88;;;2.40;;
69754;SDS011;57023;52.218;5.158;2023-08-20T12:20:30;6.00;;;2.40;;
69754;SDS011;57023;52.218;5.158;2023-08-20T12:23:00;7.57;;;2.40;;
69754;SDS011;57023;52.218;5.158;2023-08-20T12:25:30;6.00;;;2.40;;
69754;SDS011;57023;52.218;5.158;2023-08-20T12:27:57;7.28;;;2.30;;
69754;SDS011;57023;52.218;5.158;2023-08-20T12:30:23;7.73;;;2.60;;
69754;SDS011;57023;52.218;5.158;2023-08-20T12:32:48;6.20;;;2.20;;
69754;SDS011;57023;52.218;5.158;2023-08-20T12:35:13;6.53;;;2.17;;
69754;SDS011;57023;52.218;5.158;2023-08-20T12:37:39;8.73;;;2.22;;
69754;SDS011;57023;52.218;5.158;2023-08-20T12:42:33;8.10;;;2.33;;
69754;SDS011;57023;52.218;5.158;2023-08-20T12:44:58;6.05;;;2.20;;
69754;SDS011;57023;52.218;5.158;2023-08-20T12:47:23;6.03;;;2.20;;
69754;SDS011;57023;52.218;5.158;2023-08-20T12:49:49;13.57;;;2.40;;
69754;SDS011;57023;52.218;5.158;2023-08-20T12:52:14;6.60;;;2.17;;
69754;SDS011;57023;52.218;5.158;2023-08-20T12:57:05;6.90;;;2.33;;
69754;SDS011;57023;52.218;5.158;2023-08-20T13:01:55;4.93;;;2.00;;
69754;SDS011;57023;52.218;5.158;2023-08-20T13:06:47;5.70;;;2.07;;
69754;SDS011;57023;52.218;5.158;2023-08-20T13:09:12;4.80;;;1.90;;
69754;SDS011;57023;52.218;5.158;2023-08-20T13:11:40;5.28;;;2.08;;
69754;SDS011;57023;52.218;5.158;2023-08-20T13:14:07;7.32;;;2.15;;
69754;SDS011;57023;52.218;5.158;2023-08-20T13:18:58;7.65;;;2.10;;
69754;SDS011;57023;52.218;5.158;2023-08-20T13:23:49;6.83;;;2.10;;
69754;SDS011;57023;52.218;5.158;2023-08-20T13:31:05;4.83;;;1.90;;
69754;SDS011;57023;52.218;5.158;2023-08-20T13:33:30;4.70;;;1.80;;
69754;SDS011;57023;52.218;5.158;2023-08-20T13:35:55;5.35;;;1.90;;
69754;SDS011;57023;52.218;5.158;2023-08-20T13:38:22;4.43;;;1.98;;
69754;SDS011;57023;52.218;5.158;2023-08-20T13:40:47;6.10;;;2.10;;
69754;SDS011;57023;52.218;5.158;2023-08-20T13:43:13;4.70;;;1.85;;
69754;SDS011;57023;52.218;5.158;2023-08-20T13:45:39;4.35;;;1.85;;
69754;SDS011;57023;52.218;5.158;2023-08-20T13:48:04;5.30;;;2.00;;
69754;SDS011;57023;52.218;5.158;2023-08-20T13:50:30;5.35;;;1.90;;
69754;SDS011;57023;52.218;5.158;2023-08-20T13:52:55;5.03;;;2.05;;
69754;SDS011;57023;52.218;5.158;2023-08-20T13:55:21;5.50;;;1.75;;
69754;SDS011;57023;52.218;5.158;2023-08-20T13:57:49;5.53;;;2.17;;
69754;SDS011;57023;52.218;5.158;2023-08-20T14:00:14;5.35;;;1.90;;
69754;SDS011;57023;52.218;5.158;2023-08-20T14:02:40;4.90;;;1.80;;
69754;SDS011;57023;52.218;5.158;2023-08-20T14:05:05;6.10;;;2.00;;
69754;SDS011;57023;52.218;5.158;2023-08-20T14:07:31;5.75;;;2.08;;
69754;SDS011;57023;52.218;5.158;2023-08-20T14:09:58;4.72;;;1.90;;
69754;SDS011;57023;52.218;5.158;2023-08-20T14:12:23;5.30;;;1.90;;
69754;SDS011;57023;52.218;5.158;2023-08-20T14:14:48;5.50;;;1.80;;
69754;SDS011;57023;52.218;5.158;2023-08-20T14:17:14;7.43;;;2.15;;
69754;SDS011;57023;52.218;5.158;2023-08-20T14:19:42;5.65;;;2.00;;
69754;SDS011;57023;52.218;5.158;2023-08-20T14:22:08;4.55;;;1.80;;
69754;SDS011;57023;52.218;5.158;2023-08-20T14:24:33;4.37;;;2.13;;
69754;SDS011;57023;52.218;5.158;2023-08-20T14:26:58;5.10;;;1.83;;
69754;SDS011;57023;52.218;5.158;2023-08-20T14:29:24;4.57;;;1.88;;
69754;SDS011;57023;52.218;5.158;2023-08-20T14:31:49;3.95;;;1.70;;
69754;SDS011;57023;52.218;5.158;2023-08-20T14:34:14;6.97;;;2.20;;
69754;SDS011;57023;52.218;5.158;2023-08-20T14:36:40;5.07;;;1.77;;
69754;SDS011;57023;52.218;5.158;2023-08-20T14:39:05;5.10;;;2.15;;
69754;SDS011;57023;52.218;5.158;2023-08-20T14:41:31;5.03;;;1.90;;
69754;SDS011;57023;52.218;5.158;2023-08-20T14:43:56;6.90;;;2.28;;
69754;SDS011;57023;52.218;5.158;2023-08-20T14:46:21;6.20;;;2.27;;
69754;SDS011;57023;52.218;5.158;2023-08-20T14:48:47;4.97;;;2.22;;
69754;SDS011;57023;52.218;5.158;2023-08-20T14:51:12;5.15;;;2.10;;
69754;SDS011;57023;52.218;5.158;2023-08-20T14:53:38;4.95;;;1.90;;
69754;SDS011;57023;52.218;5.158;2023-08-20T14:56:03;6.32;;;2.13;;
69754;SDS011;57023;52.218;5.158;2023-08-20T14:58:32;6.80;;;1.90;;
69754;SDS011;57023;52.218;5.158;2023-08-20T15:00:57;5.35;;;2.03;;
69754;SDS011;57023;52.218;5.158;2023-08-20T15:03:22;4.97;;;2.10;;
69754;SDS011;57023;52.218;5.158;2023-08-20T15:05:48;4.80;;;1.90;;
69754;SDS011;57023;52.218;5.158;2023-08-20T15:10:39;6.90;;;2.15;;
69754;SDS011;57023;52.218;5.158;2023-08-20T15:13:04;4.83;;;1.90;;
69754;SDS011;57023;52.218;5.158;2023-08-20T15:15:29;6.87;;;2.10;;
69754;SDS011;57023;52.218;5.158;2023-08-20T15:17:56;6.88;;;1.80;;
69754;SDS011;57023;52.218;5.158;2023-08-20T15:20:21;6.40;;;2.20;;
69754;SDS011;57023;52.218;5.158;2023-08-20T15:22:47;5.83;;;2.10;;
69754;SDS011;57023;52.218;5.158;2023-08-20T15:25:12;7.43;;;2.27;;